createdAt,value
2023-03-08T00:01:30.258Z,98652.03
2023-03-08T00:04:01.054Z,98647.03
2023-03-08T00:06:30.194Z,98651.34
2023-03-08T00:08:58.274Z,98655.44
2023-03-08T00:11:26.736Z,98659.09
2023-03-08T00:13:56.119Z,98661.88
2023-03-08T00:16:24.361Z,98656.38
2023-03-08T00:18:52.018Z,98651.59
2023-03-08T00:21:20.190Z,98652.78
2023-03-08T00:23:48.180Z,98658.28
2023-03-08T00:26:15.993Z,98654.72
2023-03-08T00:28:43.796Z,98649.19
2023-03-08T00:31:14.620Z,98652.78
2023-03-08T00:33:42.542Z,98660.88
2023-03-08T00:36:15.260Z,98661.78
2023-03-08T00:38:43.775Z,98672.63
2023-03-08T00:41:11.695Z,98670.63
2023-03-08T00:43:39.354Z,98674.34
2023-03-08T00:46:07.217Z,98675.47
2023-03-08T00:48:36.131Z,98674.94
2023-03-08T00:51:03.807Z,98672.63
2023-03-08T00:53:31.676Z,98662.91
2023-03-08T00:56:00.823Z,98663.28
2023-03-08T00:58:30.559Z,98665.56
2023-03-08T01:00:58.828Z,98658.53
2023-03-08T01:03:26.914Z,98652.47
2023-03-08T01:05:59.001Z,98652.59
2023-03-08T01:08:27.564Z,98646.97
2023-03-08T01:10:58.045Z,98649.53
2023-03-08T01:13:27.138Z,98655.09
2023-03-08T01:15:54.829Z,98647.53
2023-03-08T01:18:22.694Z,98647.53
2023-03-08T01:21:00.486Z,98634.81
2023-03-08T01:23:36.755Z,98631.16
2023-03-08T01:26:06.937Z,98645.44
2023-03-08T01:28:37.312Z,98637.44
2023-03-08T01:31:06.415Z,98641.97
2023-03-08T01:33:34.089Z,98630.13
2023-03-08T01:36:05.788Z,98629.41
2023-03-08T01:38:34.017Z,98635.72
2023-03-08T01:41:03.433Z,98624.28
2023-03-08T01:43:32.551Z,98609.97
2023-03-08T01:46:11.710Z,98615.09
2023-03-08T01:48:43.632Z,98608.34
2023-03-08T01:51:16.028Z,98611.72
2023-03-08T01:53:44.778Z,98606.34
2023-03-08T01:56:16.584Z,98611.09
2023-03-08T01:58:47.863Z,98610.16
2023-03-08T02:01:16.146Z,98601.56
2023-03-08T02:03:43.704Z,98597.03
2023-03-08T02:06:14.504Z,98591.84
2023-03-08T02:08:42.306Z,98596.06
2023-03-08T02:11:10.688Z,98596.00
2023-03-08T02:13:39.786Z,98588.28
2023-03-08T02:16:11.208Z,98585.72
2023-03-08T02:18:38.924Z,98579.72
2023-03-08T02:21:07.980Z,98577.16
2023-03-08T02:23:36.877Z,98572.19
2023-03-08T02:26:06.155Z,98570.63
2023-03-08T02:28:34.446Z,98569.66
2023-03-08T02:31:02.343Z,98560.91
2023-03-08T02:33:30.525Z,98560.31
2023-03-08T02:35:58.128Z,98552.03
2023-03-08T02:38:25.994Z,98556.63
2023-03-08T02:40:54.965Z,98555.06
2023-03-08T02:43:22.626Z,98546.00
2023-03-08T02:45:50.451Z,98547.53
2023-03-08T02:48:18.672Z,98539.81
2023-03-08T02:50:46.263Z,98545.09
2023-03-08T02:53:13.977Z,98543.84
2023-03-08T02:55:41.526Z,98551.97
2023-03-08T02:58:11.730Z,98549.00
2023-03-08T03:00:40.087Z,98526.84
2023-03-08T03:03:07.612Z,98524.72
2023-03-08T03:05:35.234Z,98519.22
2023-03-08T03:08:02.847Z,98521.81
2023-03-08T03:10:30.642Z,98521.81
2023-03-08T03:12:58.433Z,98522.81
2023-03-08T03:15:27.353Z,98516.78
2023-03-08T03:17:55.935Z,98521.22
2023-03-08T03:20:23.529Z,98530.41
2023-03-08T03:22:51.176Z,98522.78
2023-03-08T03:25:18.752Z,98514.41
2023-03-08T03:27:46.353Z,98512.56
2023-03-08T03:30:14.407Z,98514.69
2023-03-08T03:32:43.441Z,98523.47
2023-03-08T03:35:11.413Z,98519.06
2023-03-08T03:37:39.007Z,98511.94
2023-03-08T03:40:07.734Z,98510.03
2023-03-08T03:42:35.418Z,98500.69
2023-03-08T03:45:03.458Z,98500.69
2023-03-08T03:47:31.180Z,98515.34
2023-03-08T03:50:00.140Z,98515.63
2023-03-08T03:52:27.900Z,98512.44
2023-03-08T03:54:56.683Z,98510.03
2023-03-08T03:57:24.311Z,98507.66
2023-03-08T03:59:51.910Z,98503.31
2023-03-08T04:02:19.529Z,98508.28
2023-03-08T04:04:50.354Z,98502.47
2023-03-08T04:07:19.338Z,98498.81
2023-03-08T04:09:47.580Z,98496.97
2023-03-08T04:12:15.353Z,98490.56
2023-03-08T04:14:43.101Z,98489.28
2023-03-08T04:17:11.638Z,98491.06
2023-03-08T04:19:39.342Z,98482.81
2023-03-08T04:22:06.975Z,98490.19
2023-03-08T04:24:36.112Z,98483.22
2023-03-08T04:27:03.819Z,98483.84
2023-03-08T04:29:31.477Z,98474.25
2023-03-08T04:32:00.290Z,98476.25
2023-03-08T04:34:28.383Z,98476.44
2023-03-08T04:36:56.132Z,98473.59
2023-03-08T04:39:23.819Z,98470.78
2023-03-08T04:41:52.742Z,98464.69
2023-03-08T04:44:20.366Z,98461.22
2023-03-08T04:46:48.054Z,98452.41
2023-03-08T04:49:15.653Z,98447.88
2023-03-08T04:51:43.292Z,98447.94
2023-03-08T04:54:10.988Z,98436.88
2023-03-08T04:56:38.557Z,98436.69
2023-03-08T04:59:07.669Z,98445.47
2023-03-08T05:01:35.263Z,98443.41
2023-03-08T05:04:02.871Z,98437.50
2023-03-08T05:06:30.516Z,98429.94
2023-03-08T05:08:58.158Z,98426.97
2023-03-08T05:11:27.711Z,98428.59
2023-03-08T05:13:56.007Z,98427.78
2023-03-08T05:16:26.367Z,98434.19
2023-03-08T05:18:54.320Z,98427.78
2023-03-08T05:21:23.580Z,98419.41
2023-03-08T05:23:51.197Z,98410.44
2023-03-08T05:26:19.713Z,98416.34
2023-03-08T05:28:47.344Z,98412.69
2023-03-08T05:31:17.329Z,98412.88
2023-03-08T05:33:49.871Z,98414.06
2023-03-08T05:36:19.381Z,98406.09
2023-03-08T05:38:48.045Z,98409.56
2023-03-08T05:41:17.283Z,98398.13
2023-03-08T05:43:45.231Z,98389.19
2023-03-08T05:46:15.104Z,98389.09
2023-03-08T05:48:42.947Z,98383.84
2023-03-08T05:51:13.579Z,98373.44
2023-03-08T05:53:41.529Z,98380.78
2023-03-08T05:56:10.729Z,98373.88
2023-03-08T05:58:38.611Z,98376.25
2023-03-08T06:01:13.887Z,98384.63
2023-03-08T06:03:41.837Z,98370.88
2023-03-08T06:06:11.917Z,98374.97
2023-03-08T06:08:41.573Z,98379.69
2023-03-08T06:11:10.219Z,98376.56
2023-03-08T06:13:38.511Z,98381.00
2023-03-08T06:16:07.197Z,98384.94
2023-03-08T06:18:37.121Z,98412.09
2023-03-08T06:21:06.751Z,98400.53
2023-03-08T06:23:35.970Z,98386.81
2023-03-08T06:26:07.254Z,98378.44
2023-03-08T06:28:35.445Z,98369.25
2023-03-08T06:31:03.335Z,98365.22
2023-03-08T06:33:33.761Z,98372.06
2023-03-08T06:36:03.634Z,98377.78
2023-03-08T06:38:33.519Z,98391.31
2023-03-08T06:41:02.197Z,98380.31
2023-03-08T06:43:31.574Z,98380.22
2023-03-08T06:45:59.700Z,98371.25
2023-03-08T06:48:27.421Z,98373.91
2023-03-08T06:50:55.009Z,98361.22
2023-03-08T06:53:22.940Z,98354.72
2023-03-08T06:55:50.500Z,98362.47
2023-03-08T06:58:18.032Z,98353.28
2023-03-08T07:00:47.674Z,98346.31
2023-03-08T07:03:15.717Z,98337.75
2023-03-08T07:05:43.563Z,98340.09
2023-03-08T07:08:11.362Z,98340.91
2023-03-08T07:10:39.030Z,98340.38
2023-03-08T07:13:06.672Z,98349.41
2023-03-08T07:15:34.496Z,98342.47
2023-03-08T07:18:03.434Z,98333.66
2023-03-08T07:20:31.287Z,98329.25
2023-03-08T07:23:01.888Z,98323.66
2023-03-08T07:25:29.842Z,98328.19
2023-03-08T07:28:00.057Z,98328.59
2023-03-08T07:30:28.566Z,98319.22
2023-03-08T07:32:56.268Z,98307.19
2023-03-08T07:35:25.169Z,98299.53
2023-03-08T07:37:53.381Z,98303.03
2023-03-08T07:40:21.091Z,98288.53
2023-03-08T07:42:48.956Z,98290.44
2023-03-08T07:45:16.707Z,98277.16
2023-03-08T07:47:44.284Z,98273.97
2023-03-08T07:50:12.462Z,98266.44
2023-03-08T07:52:45.481Z,98270.22
2023-03-08T07:55:13.409Z,98256.75
2023-03-08T07:57:41.197Z,98254.72
2023-03-08T08:00:10.051Z,98248.78
2023-03-08T08:02:38.132Z,98245.38
2023-03-08T08:05:06.862Z,98234.50
2023-03-08T08:07:34.513Z,98224.50
2023-03-08T08:10:03.845Z,98223.50
2023-03-08T08:12:31.462Z,98225.56
2023-03-08T08:15:00.089Z,98224.91
2023-03-08T08:17:27.830Z,98226.47
2023-03-08T08:19:55.417Z,98215.78
2023-03-08T08:22:23.117Z,98208.19
2023-03-08T08:24:50.765Z,98197.13
2023-03-08T08:27:19.884Z,98185.59
2023-03-08T08:29:49.488Z,98188.78
2023-03-08T08:32:17.410Z,98173.53
2023-03-08T08:34:45.708Z,98170.94
2023-03-08T08:37:15.023Z,98173.31
2023-03-08T08:39:42.528Z,98178.28
2023-03-08T08:42:10.078Z,98178.63
2023-03-08T08:44:39.219Z,98182.44
2023-03-08T08:47:06.837Z,98173.66
2023-03-08T08:49:34.424Z,98167.59
2023-03-08T08:52:02.087Z,98167.16
2023-03-08T08:54:30.004Z,98155.94
2023-03-08T08:56:57.562Z,98148.72
2023-03-08T08:59:25.468Z,98145.06
2023-03-08T09:01:54.376Z,98138.94
2023-03-08T09:04:22.094Z,98126.34
2023-03-08T09:06:49.806Z,98123.63
2023-03-08T09:09:19.182Z,98121.50
2023-03-08T09:11:54.685Z,98113.00
2023-03-08T09:14:23.557Z,98111.84
2023-03-08T09:16:52.578Z,98111.53
2023-03-08T09:19:21.809Z,98103.06
2023-03-08T09:21:49.627Z,98097.63
2023-03-08T09:24:17.582Z,98089.34
2023-03-08T09:26:47.322Z,98092.34
2023-03-08T09:29:15.080Z,98102.88
2023-03-08T09:31:47.297Z,98104.53
2023-03-08T09:34:15.510Z,98099.47
2023-03-08T09:36:45.517Z,98099.97
2023-03-08T09:39:14.118Z,98103.81
2023-03-08T09:41:51.025Z,98100.19
2023-03-08T09:44:43.886Z,98090.38
2023-03-08T09:47:19.888Z,98089.72
2023-03-08T09:49:52.002Z,98089.56
2023-03-08T09:52:33.680Z,98079.72
2023-03-08T09:55:04.580Z,98081.44
2023-03-08T09:57:39.192Z,98078.53
2023-03-08T10:00:15.071Z,98083.50
2023-03-08T10:02:54.296Z,98081.63
2023-03-08T10:05:25.671Z,98065.66
2023-03-08T10:08:02.484Z,98070.41
2023-03-08T10:10:40.371Z,98068.59
2023-03-08T10:13:33.304Z,98043.88
2023-03-08T10:16:16.329Z,98039.38
2023-03-08T10:18:49.614Z,98033.03
2023-03-08T10:21:19.553Z,98032.66
2023-03-08T10:23:53.769Z,98021.28
2023-03-08T10:26:21.325Z,98020.84
2023-03-08T10:28:50.031Z,98021.00
2023-03-08T10:31:22.654Z,98016.16
2023-03-08T10:33:54.393Z,98023.91
2023-03-08T10:36:24.093Z,98016.94
2023-03-08T10:39:04.849Z,98004.19
2023-03-08T10:41:39.664Z,98013.25
2023-03-08T10:44:07.354Z,98012.59
2023-03-08T10:46:35.188Z,98008.06
2023-03-08T10:49:10.607Z,97999.78
2023-03-08T10:51:38.304Z,97997.78
2023-03-08T10:54:12.338Z,97984.31
2023-03-08T10:56:44.807Z,97974.94
2023-03-08T10:59:19.643Z,97978.00
2023-03-08T11:01:53.219Z,97970.66
2023-03-08T11:04:22.470Z,97964.75
2023-03-08T11:06:50.394Z,97961.22
2023-03-08T11:09:25.797Z,97955.75
2023-03-08T11:11:53.916Z,97955.06
2023-03-08T11:14:21.791Z,97946.53
2023-03-08T11:17:03.584Z,97952.84
2023-03-08T11:19:38.028Z,97939.66
2023-03-08T11:22:17.923Z,97938.97
2023-03-08T11:24:59.870Z,97942.00
2023-03-08T11:27:39.826Z,97951.66
2023-03-08T11:30:19.935Z,97958.16
2023-03-08T11:33:13.539Z,97956.41
2023-03-08T11:35:50.516Z,97955.97
2023-03-08T11:38:21.110Z,97932.13
2023-03-08T11:40:59.731Z,97919.91
2023-03-08T11:43:41.958Z,97922.75
2023-03-08T11:46:18.512Z,97928.22
2023-03-08T11:49:11.319Z,97920.06
2023-03-08T11:51:46.251Z,97919.59
2023-03-08T11:54:19.236Z,97918.88
2023-03-08T11:56:55.869Z,97906.16
2023-03-08T11:59:33.928Z,97902.44
2023-03-08T12:02:10.809Z,97894.78
2023-03-08T12:04:44.627Z,97901.59
2023-03-08T12:07:20.967Z,97890.63
2023-03-08T12:09:56.701Z,97889.44
2023-03-08T12:12:31.871Z,97898.56
2023-03-08T12:15:07.686Z,97892.72
2023-03-08T12:17:41.594Z,97880.81
2023-03-08T12:20:14.962Z,97883.31
2023-03-08T12:22:48.134Z,97873.31
2023-03-08T12:25:25.175Z,97884.50
2023-03-08T12:28:01.607Z,97886.66
2023-03-08T12:30:42.615Z,97885.97
2023-03-08T12:33:13.952Z,97870.06
2023-03-08T12:35:52.705Z,97865.81
2023-03-08T12:38:34.178Z,97844.81
2023-03-08T12:41:04.972Z,97857.50
2023-03-08T12:43:36.017Z,97847.75
2023-03-08T12:46:07.544Z,97847.44
2023-03-08T12:48:38.983Z,97850.13
2023-03-08T12:51:18.688Z,97864.66
2023-03-08T12:53:57.957Z,97862.13
2023-03-08T12:56:32.937Z,97844.94
2023-03-08T12:59:03.527Z,97846.78
2023-03-08T13:01:38.377Z,97831.00
2023-03-08T13:04:39.076Z,97825.91
2023-03-08T13:07:23.562Z,97829.84
2023-03-08T13:09:57.498Z,97829.72
2023-03-08T13:15:24.878Z,97821.25
2023-03-08T13:18:02.036Z,97839.34
2023-03-08T13:20:50.845Z,97832.63
2023-03-08T13:23:27.142Z,97843.63
2023-03-08T13:26:06.292Z,97834.09
2023-03-08T13:28:46.558Z,97835.19
2023-03-08T13:31:20.563Z,97832.28
2023-03-08T13:33:50.625Z,97826.88
2023-03-08T13:36:23.780Z,97820.63
2023-03-08T13:38:59.899Z,97828.28
2023-03-08T13:41:38.250Z,97832.56
2023-03-08T13:44:08.088Z,97831.53
2023-03-08T13:46:42.470Z,97827.34
2023-03-08T13:49:16.013Z,97829.53
2023-03-08T13:51:45.219Z,97829.41
2023-03-08T13:54:17.576Z,97829.03
2023-03-08T13:56:45.195Z,97826.81
2023-03-08T13:59:19.728Z,97834.44
2023-03-08T14:01:50.293Z,97825.75
2023-03-08T14:04:30.303Z,97824.72
2023-03-08T14:06:59.790Z,97812.31
2023-03-08T14:09:28.678Z,97812.09
2023-03-08T14:12:00.560Z,97813.38
2023-03-08T14:14:31.647Z,97808.38
2023-03-08T14:17:01.405Z,97814.00
2023-03-08T14:19:32.701Z,97812.59
2023-03-08T14:22:03.371Z,97807.63
2023-03-08T14:24:33.770Z,97809.34
2023-03-08T14:27:02.996Z,97805.34
2023-03-08T14:29:31.843Z,97795.06
2023-03-08T14:32:09.140Z,97798.66
2023-03-08T14:34:39.410Z,97810.44
2023-03-08T14:37:15.284Z,97797.09
2023-03-08T14:39:45.115Z,97793.56
2023-03-08T14:42:21.621Z,97798.53
2023-03-08T14:44:54.609Z,97775.25
2023-03-08T14:47:26.500Z,97770.28
2023-03-08T14:49:58.097Z,97769.19
2023-03-08T14:52:28.032Z,97762.19
2023-03-08T14:54:55.628Z,97762.25
2023-03-08T14:57:25.486Z,97755.84
2023-03-08T14:59:54.717Z,97753.47
2023-03-08T15:02:22.177Z,97736.97
2023-03-08T15:04:51.081Z,97731.03
2023-03-08T15:07:22.241Z,97731.25
2023-03-08T15:09:52.042Z,97719.13
2023-03-08T15:12:19.658Z,97715.41
2023-03-08T15:14:47.244Z,97713.94
2023-03-08T15:17:14.788Z,97715.50
2023-03-08T15:19:42.353Z,97703.44
2023-03-08T15:22:14.475Z,97711.94
2023-03-08T15:24:42.307Z,97710.84
2023-03-08T15:27:14.413Z,97710.03
2023-03-08T15:29:42.021Z,97708.78
2023-03-08T15:32:09.676Z,97715.66
2023-03-08T15:34:39.469Z,97714.97
2023-03-08T15:37:07.958Z,97715.78
2023-03-08T15:39:36.969Z,97703.06
2023-03-08T15:42:04.756Z,97694.94
2023-03-08T15:44:32.431Z,97689.91
2023-03-08T15:47:01.647Z,97694.81
2023-03-08T15:49:29.355Z,97695.66
2023-03-08T15:51:56.975Z,97686.22
2023-03-08T15:54:26.883Z,97690.28
2023-03-08T15:56:55.814Z,97697.59
2023-03-08T15:59:23.442Z,97692.78
2023-03-08T16:01:51.081Z,97693.63
2023-03-08T16:04:18.591Z,97700.00
2023-03-08T16:06:46.277Z,97704.63
2023-03-08T16:09:14.021Z,97711.59
2023-03-08T16:11:41.599Z,97711.88
2023-03-08T16:14:10.756Z,97708.31
2023-03-08T16:16:45.325Z,97702.41
2023-03-08T16:19:13.844Z,97694.13
2023-03-08T16:21:41.637Z,97692.28
2023-03-08T16:24:09.601Z,97685.41
2023-03-08T16:26:37.242Z,97669.03
2023-03-08T16:29:04.991Z,97671.84
2023-03-08T16:31:34.005Z,97664.38
2023-03-08T16:34:03.292Z,97675.53
2023-03-08T16:36:30.823Z,97664.19
2023-03-08T16:38:58.415Z,97666.81
2023-03-08T16:41:37.812Z,97679.06
2023-03-08T16:44:06.766Z,97673.91
2023-03-08T16:46:36.578Z,97672.63
2023-03-08T16:49:04.355Z,97676.06
2023-03-08T16:51:37.336Z,97684.91
2023-03-08T16:54:06.327Z,97696.50
2023-03-08T16:56:33.961Z,97681.50
2023-03-08T16:59:02.377Z,97674.84
2023-03-08T17:01:31.294Z,97676.25
2023-03-08T17:04:03.163Z,97687.94
2023-03-08T17:06:33.136Z,97680.34
2023-03-08T17:09:00.901Z,97679.91
2023-03-08T17:11:31.054Z,97698.66
2023-03-08T17:14:01.816Z,97691.66
2023-03-08T17:16:31.376Z,97696.66
2023-03-08T17:19:01.194Z,97690.84
2023-03-08T17:21:31.202Z,97708.47
2023-03-08T17:24:00.066Z,97722.34
2023-03-08T17:26:27.807Z,97721.72
2023-03-08T17:28:56.944Z,97718.69
2023-03-08T17:31:25.051Z,97722.84
2023-03-08T17:33:53.358Z,97717.44
2023-03-08T17:36:24.912Z,97717.91
2023-03-08T17:38:53.814Z,97725.09
2023-03-08T17:41:22.524Z,97730.88
2023-03-08T17:43:50.697Z,97738.53
2023-03-08T17:46:21.252Z,97728.28
2023-03-08T17:48:50.410Z,97731.66
2023-03-08T17:51:20.336Z,97713.03
2023-03-08T17:53:49.967Z,97711.13
2023-03-08T17:56:19.918Z,97703.56
2023-03-08T17:58:48.218Z,97710.88
2023-03-08T18:01:17.759Z,97713.72
2023-03-08T18:03:46.181Z,97700.41
2023-03-08T18:06:19.671Z,97695.56
2023-03-08T18:08:48.784Z,97704.03
2023-03-08T18:11:16.394Z,97697.31
2023-03-08T18:13:44.262Z,97698.34
2023-03-08T18:16:12.287Z,97698.69
2023-03-08T18:18:39.928Z,97688.47
2023-03-08T18:21:13.902Z,97695.44
2023-03-08T18:23:43.148Z,97698.00
2023-03-08T18:26:13.119Z,97686.53
2023-03-08T18:28:41.198Z,97690.91
2023-03-08T18:31:10.374Z,97683.38
2023-03-08T18:33:38.096Z,97694.63
2023-03-08T18:36:06.283Z,97704.22
2023-03-08T18:38:34.150Z,97713.53
2023-03-08T18:41:01.886Z,97708.31
2023-03-08T18:43:38.246Z,97708.69
2023-03-08T18:46:15.064Z,97715.63
2023-03-08T18:48:53.302Z,97721.28
2023-03-08T18:51:36.098Z,97718.72
2023-03-08T18:54:10.881Z,97724.66
2023-03-08T18:56:39.293Z,97729.97
2023-03-08T18:59:09.406Z,97730.19
2023-03-08T19:01:37.329Z,97735.78
2023-03-08T19:04:07.214Z,97737.53
2023-03-08T19:06:56.030Z,97734.53
2023-03-08T19:09:24.305Z,97740.28
2023-03-08T19:11:51.870Z,97736.47
2023-03-08T19:14:20.815Z,97739.00
2023-03-08T19:16:48.584Z,97722.44
2023-03-08T19:19:18.066Z,97732.28
2023-03-08T19:21:48.544Z,97737.63
2023-03-08T19:24:17.786Z,97731.25
2023-03-08T19:26:47.293Z,97722.97
2023-03-08T19:29:17.760Z,97724.72
2023-03-08T19:31:50.094Z,97719.72
2023-03-08T19:34:17.915Z,97720.94
2023-03-08T19:36:47.161Z,97719.88
2023-03-08T19:39:16.795Z,97724.88
2023-03-08T19:41:45.203Z,97727.66
2023-03-08T19:44:12.903Z,97723.69
2023-03-08T19:46:40.829Z,97715.50
2023-03-08T19:49:13.073Z,97711.31
2023-03-08T19:51:40.798Z,97701.03
2023-03-08T19:54:08.830Z,97700.66
2023-03-08T19:56:37.242Z,97701.94
2023-03-08T19:59:05.492Z,97696.22
2023-03-08T20:01:33.270Z,97710.75
2023-03-08T20:04:00.768Z,97705.19
2023-03-08T20:06:32.100Z,97709.25
2023-03-08T20:09:00.360Z,97710.63
2023-03-08T20:11:28.409Z,97708.88
2023-03-08T20:13:56.378Z,97707.03
2023-03-08T20:16:24.664Z,97703.31
2023-03-08T20:18:54.147Z,97707.84
2023-03-08T20:21:23.998Z,97713.41
2023-03-08T20:23:55.424Z,97713.53
2023-03-08T20:26:23.174Z,97709.69
2023-03-08T20:28:50.779Z,97717.25
2023-03-08T20:31:18.863Z,97705.53
2023-03-08T20:33:47.024Z,97707.41
2023-03-08T20:36:14.730Z,97713.78
2023-03-08T20:38:42.354Z,97726.97
2023-03-08T20:41:18.070Z,97725.91
2023-03-08T20:43:47.602Z,97722.81
2023-03-08T20:46:17.603Z,97723.50
2023-03-08T20:48:46.468Z,97722.44
2023-03-08T20:51:15.686Z,97723.84
2023-03-08T20:53:43.543Z,97731.25
2023-03-08T20:56:14.315Z,97731.84
2023-03-08T20:58:42.859Z,97742.84
2023-03-08T21:01:11.524Z,97740.06
2023-03-08T21:03:40.671Z,97739.59
2023-03-08T21:06:12.702Z,97727.03
2023-03-08T21:08:40.394Z,97716.94
2023-03-08T21:11:08.211Z,97708.88
2023-03-08T21:13:38.001Z,97703.06
2023-03-08T21:16:08.067Z,97698.22
2023-03-08T21:18:35.855Z,97693.47
2023-03-08T21:21:03.601Z,97696.22
2023-03-08T21:23:31.366Z,97694.56
2023-03-08T21:26:00.361Z,97686.31
2023-03-08T21:28:28.581Z,97687.31
2023-03-08T21:30:57.732Z,97682.47
2023-03-08T21:33:25.638Z,97679.00
2023-03-08T21:35:53.344Z,97680.03
2023-03-08T21:38:22.232Z,97669.50
2023-03-08T21:40:50.746Z,97672.28
2023-03-08T21:43:18.418Z,97660.66
2023-03-08T21:45:45.970Z,97645.72
2023-03-08T21:48:15.071Z,97641.22
2023-03-08T21:50:42.706Z,97644.22
2023-03-08T21:53:10.289Z,97642.47
2023-03-08T21:55:39.871Z,97646.19
2023-03-08T21:58:07.539Z,97646.94
2023-03-08T22:00:35.449Z,97645.16
2023-03-08T22:03:03.077Z,97642.41
2023-03-08T22:05:32.789Z,97639.56
2023-03-08T22:08:00.346Z,97637.25
2023-03-08T22:10:27.989Z,97629.97
2023-03-08T22:12:55.551Z,97623.81
2023-03-08T22:15:23.284Z,97619.56
2023-03-08T22:17:52.496Z,97621.75
2023-03-08T22:20:20.216Z,97619.56
2023-03-08T22:22:49.122Z,97616.16
2023-03-08T22:25:16.827Z,97602.88
2023-03-08T22:27:44.432Z,97601.38
2023-03-08T22:30:13.093Z,97606.69
2023-03-08T22:32:41.930Z,97606.91
2023-03-08T22:35:10.976Z,97600.91
2023-03-08T22:37:38.882Z,97604.47
2023-03-08T22:40:11.142Z,97606.53
2023-03-08T22:42:38.752Z,97603.09
2023-03-08T22:45:07.613Z,97611.03
2023-03-08T22:47:35.231Z,97598.25
2023-03-08T22:50:03.839Z,97592.16
2023-03-08T22:52:31.538Z,97599.88
2023-03-08T22:54:59.261Z,97590.47
2023-03-08T22:57:28.305Z,97570.59
2023-03-08T22:59:56.143Z,97562.47
2023-03-08T23:02:24.152Z,97559.09
2023-03-08T23:04:52.186Z,97558.44
2023-03-08T23:07:19.811Z,97536.09
2023-03-08T23:09:47.433Z,97543.63
2023-03-08T23:12:15.332Z,97543.50
2023-03-08T23:14:45.367Z,97542.28
2023-03-08T23:17:13.096Z,97546.97
2023-03-08T23:19:45.004Z,97537.94
2023-03-08T23:22:13.101Z,97525.75
2023-03-08T23:24:40.677Z,97526.88
2023-03-08T23:27:08.667Z,97525.91
2023-03-08T23:29:37.398Z,97518.16
2023-03-08T23:32:07.204Z,97506.88
2023-03-08T23:34:34.890Z,97507.47
2023-03-08T23:37:04.116Z,97496.97
2023-03-08T23:39:31.727Z,97503.75
2023-03-08T23:41:59.341Z,97498.50
2023-03-08T23:44:27.645Z,97490.56
2023-03-08T23:46:55.336Z,97489.84
2023-03-08T23:49:24.238Z,97491.22
2023-03-08T23:51:51.822Z,97481.66
2023-03-08T23:54:19.451Z,97477.78
2023-03-08T23:56:47.134Z,97477.72
2023-03-08T23:59:18.679Z,97474.00
